Time;durP1;ratioP1;P1;durP2;ratioP2;P2;SDS_P1;SDS_P2;PMS_P1;PMS_P2;Temp;Humidity;BMP_temperature;BMP_pressure;BME280_temperature;BME280_humidity;BME280_pressure;Samples;Min_cycle;Max_cycle;Signal;HPM_P1;HPM_P2
2022/03/24 00:00:35;;;;;;;31.55;17.08;;;8.20;93.70;;;;;;5097491;28;20029;-72
2022/03/24 00:03:00;;;;;;;30.70;17.80;;;8.20;93.70;;;;;;5098114;28;20039;-72
2022/03/24 00:05:27;;;;;;;32.85;17.50;;;8.20;93.90;;;;;;5097810;28;20024;-72
2022/03/24 00:07:52;;;;;;;25.20;16.88;;;8.20;94.00;;;;;;5082037;28;20039;-72
2022/03/24 00:10:18;;;;;;;31.33;18.48;;;8.20;94.10;;;;;;5081857;28;20020;-72
2022/03/24 00:12:44;;;;;;;31.65;17.70;;;8.20;94.10;;;;;;5098487;28;20016;-73
2022/03/24 00:15:11;;;;;;;34.08;18.30;;;8.10;94.20;;;;;;5095938;28;20377;-71
2022/03/24 00:17:36;;;;;;;32.28;18.23;;;8.10;94.30;;;;;;5075819;28;20032;-73
2022/03/24 00:20:03;;;;;;;31.30;18.13;;;8.00;94.40;;;;;;5082268;28;20025;-73
2022/03/24 00:22:28;;;;;;;29.52;18.38;;;8.00;94.50;;;;;;5071985;28;20316;-72
2022/03/24 00:24:54;;;;;;;33.80;17.77;;;8.00;94.70;;;;;;5062618;28;20028;-72
2022/03/24 00:27:20;;;;;;;32.35;18.52;;;7.90;94.80;;;;;;5062341;28;20055;-72
2022/03/24 00:29:46;;;;;;;29.35;17.45;;;7.90;94.90;;;;;;5061649;28;20027;-73
2022/03/24 00:32:12;;;;;;;27.08;17.63;;;7.80;95.00;;;;;;5060916;28;20127;-72
2022/03/24 00:34:38;;;;;;;31.25;17.77;;;7.70;95.20;;;;;;5067787;28;20020;-72
2022/03/24 00:37:04;;;;;;;33.38;18.92;;;7.70;95.40;;;;;;5060660;28;20250;-73
2022/03/24 00:39:33;;;;;;;35.28;18.83;;;7.70;95.70;;;;;;5062391;28;20036;-73
2022/03/24 00:42:00;;;;;;;34.17;18.17;;;7.60;95.70;;;;;;5062972;28;20021;-72
2022/03/24 00:44:27;;;;;;;37.67;18.40;;;7.60;95.70;;;;;;5061480;28;20227;-72
2022/03/24 00:46:53;;;;;;;33.35;18.88;;;7.60;95.60;;;;;;5077009;28;20048;-72
2022/03/24 00:49:19;;;;;;;38.65;19.52;;;7.60;95.60;;;;;;5077849;28;20084;-73
2022/03/24 00:51:45;;;;;;;31.77;18.90;;;7.60;95.60;;;;;;5060113;28;20020;-72
2022/03/24 00:54:11;;;;;;;33.33;18.33;;;7.60;95.60;;;;;;5061445;28;20031;-72
2022/03/24 00:56:37;;;;;;;28.65;17.55;;;7.60;95.60;;;;;;5080386;28;20025;-73
2022/03/24 00:59:03;;;;;;;34.38;18.20;;;7.60;95.50;;;;;;5064517;28;20044;-72
2022/03/24 01:01:28;;;;;;;33.70;18.20;;;7.60;95.50;;;;;;5063861;28;20335;-72
2022/03/24 01:03:54;;;;;;;30.50;18.20;;;7.50;95.50;;;;;;5065382;28;20052;-72
2022/03/24 01:06:22;;;;;;;35.42;17.90;;;7.60;95.50;;;;;;5080652;28;20290;-71
2022/03/24 01:08:48;;;;;;;36.83;18.48;;;7.70;95.40;;;;;;5080674;28;20025;-73
2022/03/24 01:11:14;;;;;;;31.52;17.65;;;7.70;95.30;;;;;;5076750;28;20032;-72
2022/03/24 01:13:40;;;;;;;30.80;17.80;;;7.60;95.30;;;;;;5085823;28;20040;-73
2022/03/24 01:16:09;;;;;;;35.47;18.48;;;7.60;95.30;;;;;;5084295;28;20058;-73
2022/03/24 01:18:37;;;;;;;31.73;17.88;;;7.60;95.40;;;;;;5085179;28;20024;-72
2022/03/24 01:21:04;;;;;;;30.35;17.27;;;7.50;95.50;;;;;;5084169;28;20231;-73
2022/03/24 01:23:30;;;;;;;34.13;18.50;;;7.50;95.60;;;;;;5083900;28;20016;-73
2022/03/24 01:25:59;;;;;;;30.27;18.42;;;7.40;95.80;;;;;;5084573;28;20028;-72
2022/03/24 01:28:25;;;;;;;31.80;18.73;;;7.30;96.30;;;;;;5085119;28;20028;-74
2022/03/24 01:30:51;;;;;;;32.50;18.58;;;7.30;96.40;;;;;;5085172;28;20012;-72
2022/03/24 01:33:16;;;;;;;28.02;17.95;;;7.20;96.50;;;;;;5100286;28;20031;-72
2022/03/24 01:35:42;;;;;;;38.63;18.77;;;7.30;96.50;;;;;;5078106;28;20031;-72
2022/03/24 01:38:09;;;;;;;33.55;19.77;;;7.20;96.40;;;;;;5083015;28;20320;-72
2022/03/24 01:40:35;;;;;;;32.22;18.73;;;7.20;96.50;;;;;;5085233;28;20231;-71
2022/03/24 01:43:00;;;;;;;31.52;18.23;;;7.20;96.60;;;;;;5085078;28;20025;-72
2022/03/24 01:45:26;;;;;;;31.10;18.90;;;7.10;96.60;;;;;;5100117;28;20312;-71
2022/03/24 01:47:52;;;;;;;32.45;19.05;;;7.10;96.60;;;;;;5084888;28;20070;-73
2022/03/24 01:50:19;;;;;;;35.25;17.70;;;7.00;96.60;;;;;;5100450;28;20020;-73
2022/03/24 01:52:45;;;;;;;32.40;18.52;;;7.00;96.80;;;;;;5084497;28;20357;-72
2022/03/24 01:55:13;;;;;;;31.77;18.08;;;7.00;97.00;;;;;;5084064;28;20311;-72
2022/03/24 01:57:40;;;;;;;31.17;18.55;;;7.00;97.00;;;;;;5100509;28;20095;-73
2022/03/24 02:00:07;;;;;;;39.88;18.13;;;6.90;97.10;;;;;;5083280;28;20081;-73
2022/03/24 02:02:33;;;;;;;27.40;17.13;;;6.90;97.30;;;;;;5085084;28;20020;-73
2022/03/24 02:04:58;;;;;;;28.35;18.70;;;6.90;97.50;;;;;;5083682;28;20024;-71
2022/03/24 02:07:24;;;;;;;32.33;18.80;;;6.70;97.70;;;;;;5100161;28;20219;-74
2022/03/24 02:09:50;;;;;;;31.88;18.65;;;6.70;97.80;;;;;;5084385;28;20219;-72
2022/03/24 02:12:16;;;;;;;33.78;18.75;;;6.60;97.90;;;;;;5099938;28;20036;-72
2022/03/24 02:14:43;;;;;;;32.92;18.52;;;6.60;98.00;;;;;;5083526;28;20024;-72
2022/03/24 02:17:08;;;;;;;35.75;18.45;;;6.60;98.10;;;;;;5084510;28;20023;-73
2022/03/24 02:19:36;;;;;;;29.10;17.92;;;6.70;98.10;;;;;;5082999;28;20024;-73
2022/03/24 02:22:17;;;;;;;26.88;17.23;;;6.60;98.10;;;;;;5083043;28;20025;-72
2022/03/24 02:24:43;;;;;;;28.15;18.25;;;6.60;98.10;;;;;;5083740;28;20052;-72
2022/03/24 02:27:10;;;;;;;35.20;18.10;;;6.60;98.20;;;;;;5084042;28;20249;-73
2022/03/24 02:29:36;;;;;;;34.80;18.50;;;6.50;98.20;;;;;;5100068;28;20198;-71
2022/03/24 02:32:07;;;;;;;38.58;19.08;;;6.50;98.30;;;;;;5082173;28;20030;-71
2022/03/24 02:34:37;;;;;;;28.48;18.13;;;6.50;98.30;;;;;;5079710;28;20024;-72
2022/03/24 02:37:08;;;;;;;39.28;19.35;;;6.50;98.30;;;;;;5063772;28;20084;-73
2022/03/24 02:39:35;;;;;;;31.95;16.55;;;6.50;98.20;;;;;;5077761;28;20040;-73
2022/03/24 02:42:01;;;;;;;30.35;18.73;;;6.50;98.20;;;;;;5063660;28;20071;-72
2022/03/24 02:44:30;;;;;;;28.58;17.80;;;6.50;98.10;;;;;;5063246;28;20066;-72
2022/03/24 02:46:57;;;;;;;31.98;17.55;;;6.50;98.30;;;;;;5079596;28;20029;-71
2022/03/24 02:49:27;;;;;;;32.00;18.55;;;6.50;98.20;;;;;;5063729;28;20025;-72
2022/03/24 02:51:54;;;;;;;29.77;17.73;;;6.50;98.20;;;;;;5062378;28;20056;-72
2022/03/24 02:54:21;;;;;;;34.65;18.50;;;6.50;98.20;;;;;;5062178;28;20048;-73
2022/03/24 02:56:48;;;;;;;39.35;19.00;;;6.40;98.30;;;;;;5062509;28;20359;-71
2022/03/24 02:59:14;;;;;;;31.23;18.15;;;6.40;98.30;;;;;;5061809;28;20110;-72
2022/03/24 03:01:42;;;;;;;29.58;17.90;;;6.40;98.40;;;;;;5063314;28;20040;-72
2022/03/24 03:04:09;;;;;;;29.77;17.88;;;6.30;98.30;;;;;;5062317;28;20020;-73
2022/03/24 03:06:36;;;;;;;30.67;17.70;;;6.30;98.30;;;;;;5061561;28;20028;-73
2022/03/24 03:09:04;;;;;;;32.58;18.42;;;6.30;98.30;;;;;;5079227;28;20028;-71
2022/03/24 03:11:31;;;;;;;32.67;18.42;;;6.20;98.40;;;;;;5091983;28;20087;-73
2022/03/24 03:13:59;;;;;;;30.13;18.00;;;6.20;98.40;;;;;;5082234;28;20211;-74
2022/03/24 03:16:25;;;;;;;28.67;17.23;;;6.10;98.40;;;;;;5081894;28;20042;-73
2022/03/24 03:18:51;;;;;;;33.50;18.23;;;5.90;98.60;;;;;;5082826;28;20296;-72
2022/03/24 03:21:17;;;;;;;30.35;18.27;;;5.90;98.80;;;;;;5081776;28;20041;-72
2022/03/24 03:23:44;;;;;;;31.83;18.75;;;5.90;98.80;;;;;;5083402;28;20012;-71
2022/03/24 03:26:12;;;;;;;33.83;18.60;;;6.00;98.80;;;;;;5082481;28;20024;-71
2022/03/24 03:28:38;;;;;;;30.15;18.15;;;6.00;98.80;;;;;;5080809;28;20030;-70
2022/03/24 03:31:05;;;;;;;30.17;17.60;;;6.00;98.70;;;;;;5083741;28;20259;-72
2022/03/24 03:33:32;;;;;;;30.10;18.25;;;6.00;98.60;;;;;;5081654;28;20020;-72
2022/03/24 03:35:58;;;;;;;31.00;19.27;;;6.10;98.50;;;;;;5066702;28;20025;-72
2022/03/24 03:38:24;;;;;;;32.55;19.10;;;6.00;98.40;;;;;;5062078;28;20203;-71
2022/03/24 03:40:52;;;;;;;30.40;17.95;;;5.90;98.60;;;;;;5059623;28;20201;-72
2022/03/24 03:43:18;;;;;;;30.35;18.35;;;5.90;98.60;;;;;;5062355;28;20048;-72
2022/03/24 03:45:44;;;;;;;35.75;20.60;;;5.70;99.00;;;;;;5061811;28;20021;-72
2022/03/24 03:48:11;;;;;;;34.55;18.85;;;5.50;99.50;;;;;;5078169;28;20305;-71
2022/03/24 03:50:37;;;;;;;33.63;18.63;;;5.40;99.70;;;;;;5078734;28;20021;-72
2022/03/24 03:53:03;;;;;;;34.33;18.08;;;5.40;99.90;;;;;;5061778;28;20152;-71
2022/03/24 03:55:29;;;;;;;35.83;19.20;;;5.40;99.90;;;;;;5077818;28;20336;-72
2022/03/24 03:57:55;;;;;;;35.28;18.58;;;5.50;99.90;;;;;;5062315;28;20024;-72
2022/03/24 04:03:07;;;;;;;37.15;18.88;;;5.60;99.70;;;;;;5061466;28;20025;-72
2022/03/24 04:05:33;;;;;;;34.33;18.98;;;5.50;99.70;;;;;;5063195;28;20028;-72
2022/03/24 04:08:00;;;;;;;37.83;19.35;;;5.60;99.70;;;;;;5062263;28;20246;-73
2022/03/24 04:10:27;;;;;;;38.53;19.75;;;5.70;99.60;;;;;;5082219;28;20028;-73
2022/03/24 04:12:55;;;;;;;35.30;18.20;;;5.70;99.50;;;;;;5081707;28;20013;-75
2022/03/24 04:15:21;;;;;;;34.75;19.35;;;5.60;99.50;;;;;;5081207;28;20025;-73
2022/03/24 04:17:47;;;;;;;36.85;19.00;;;5.60;99.50;;;;;;5082656;28;20099;-74
2022/03/24 04:20:13;;;;;;;35.83;20.10;;;5.50;99.50;;;;;;5082633;28;20032;-74
2022/03/24 04:22:39;;;;;;;35.78;20.08;;;5.40;99.70;;;;;;5080520;28;20295;-74
2022/03/24 04:25:05;;;;;;;32.25;18.85;;;5.30;99.90;;;;;;5064886;28;20031;-74
2022/03/24 04:27:31;;;;;;;38.65;18.35;;;5.20;99.90;;;;;;5082770;28;20087;-74
2022/03/24 04:29:57;;;;;;;36.92;19.23;;;5.30;99.90;;;;;;5081480;28;20040;-73
2022/03/24 04:32:23;;;;;;;37.75;19.17;;;5.40;99.90;;;;;;5085060;28;20025;-71
2022/03/24 04:34:48;;;;;;;40.42;20.50;;;5.40;99.90;;;;;;5077808;28;20301;-73
2022/03/24 04:37:15;;;;;;;33.17;18.48;;;5.40;99.90;;;;;;5081639;28;20020;-73
2022/03/24 04:39:41;;;;;;;32.50;19.13;;;5.40;99.90;;;;;;5062782;28;20028;-73
2022/03/24 04:42:08;;;;;;;36.15;19.67;;;5.40;99.90;;;;;;5064464;28;20031;-73
2022/03/24 04:44:34;;;;;;;33.00;18.98;;;5.40;99.90;;;;;;5066371;28;20048;-72
2022/03/24 04:47:00;;;;;;;32.97;18.23;;;5.40;99.90;;;;;;5064693;28;20239;-73
2022/03/24 04:49:26;;;;;;;31.27;18.95;;;5.30;99.90;;;;;;5081301;28;20029;-74
2022/03/24 04:51:53;;;;;;;33.78;20.17;;;5.30;99.90;;;;;;5065588;28;20328;-73
2022/03/24 04:54:19;;;;;;;32.85;18.73;;;5.30;99.90;;;;;;5065771;28;20020;-74
2022/03/24 04:56:45;;;;;;;33.50;19.08;;;5.20;99.90;;;;;;5064714;28;20308;-73
2022/03/24 04:59:11;;;;;;;34.13;18.13;;;5.20;99.90;;;;;;5064550;28;20101;-74
2022/03/24 05:01:37;;;;;;;36.38;18.52;;;5.20;99.90;;;;;;5064111;28;20067;-73
2022/03/24 05:04:04;;;;;;;33.75;18.63;;;5.20;99.90;;;;;;5064484;28;20542;-74
2022/03/24 05:06:31;;;;;;;32.13;18.13;;;5.20;99.90;;;;;;5064013;28;20079;-74
2022/03/24 05:08:57;;;;;;;34.28;18.70;;;5.30;99.90;;;;;;5081715;28;20016;-74
2022/03/24 05:11:23;;;;;;;33.58;18.52;;;5.30;99.90;;;;;;5077420;28;20020;-70
2022/03/24 05:13:50;;;;;;;34.72;18.83;;;5.30;99.90;;;;;;5085350;28;20083;-73
2022/03/24 05:16:15;;;;;;;38.10;18.95;;;5.30;99.90;;;;;;5068133;28;20219;-71
2022/03/24 05:18:41;;;;;;;33.28;18.98;;;5.30;99.90;;;;;;5084499;28;20031;-72
2022/03/24 05:21:07;;;;;;;33.22;18.83;;;5.20;99.90;;;;;;5085608;28;20319;-72
2022/03/24 05:23:32;;;;;;;37.38;19.42;;;5.20;99.90;;;;;;5085869;28;20181;-72
2022/03/24 05:25:58;;;;;;;33.53;19.40;;;5.20;99.90;;;;;;5083126;28;20031;-72
2022/03/24 05:28:24;;;;;;;31.60;17.58;;;5.20;99.90;;;;;;5099925;28;20028;-72
2022/03/24 05:30:50;;;;;;;33.03;18.85;;;5.00;99.90;;;;;;5084458;28;20345;-72
2022/03/24 05:33:16;;;;;;;35.25;19.25;;;5.00;99.90;;;;;;5084190;28;20051;-72
2022/03/24 05:35:42;;;;;;;32.00;19.85;;;5.00;99.90;;;;;;5068340;28;20029;-72
2022/03/24 05:38:08;;;;;;;40.38;19.35;;;5.00;99.90;;;;;;5063962;28;20215;-71
2022/03/24 05:40:35;;;;;;;34.90;18.95;;;5.00;99.90;;;;;;5062072;28;20032;-73
2022/03/24 05:43:01;;;;;;;35.75;19.17;;;5.00;99.90;;;;;;5063116;28;20029;-73
2022/03/24 05:45:28;;;;;;;34.53;19.58;;;5.00;99.90;;;;;;5079659;28;20039;-73
2022/03/24 05:47:53;;;;;;;41.35;19.20;;;5.00;99.90;;;;;;5064245;28;20020;-73
2022/03/24 05:50:19;;;;;;;34.95;18.88;;;5.00;99.90;;;;;;5063935;28;20032;-72
2022/03/24 05:52:49;;;;;;;34.47;19.55;;;4.90;99.90;;;;;;5064766;28;20125;-74
2022/03/24 05:55:16;;;;;;;29.65;18.73;;;4.90;99.90;;;;;;5079357;28;20295;-73
2022/03/24 05:57:43;;;;;;;30.98;18.63;;;4.90;99.90;;;;;;5063307;28;20078;-72
2022/03/24 06:00:10;;;;;;;34.58;19.50;;;4.90;99.90;;;;;;5080284;28;20066;-73
2022/03/24 06:02:36;;;;;;;37.28;19.20;;;4.90;99.90;;;;;;5064809;28;20043;-73
2022/03/24 06:05:08;;;;;;;33.80;18.33;;;4.90;99.90;;;;;;5062229;28;20025;-72
2022/03/24 06:07:34;;;;;;;30.02;18.63;;;4.90;99.90;;;;;;5078573;28;20339;-72
2022/03/24 06:10:00;;;;;;;34.13;18.83;;;4.90;99.90;;;;;;5080850;28;20025;-72
2022/03/24 06:12:26;;;;;;;32.05;17.98;;;5.00;99.90;;;;;;5083244;28;20066;-72
2022/03/24 06:14:52;;;;;;;34.25;19.13;;;4.90;99.90;;;;;;5083018;28;20031;-72
2022/03/24 06:17:20;;;;;;;35.28;17.40;;;5.00;99.90;;;;;;5083213;28;20017;-74
2022/03/24 06:19:47;;;;;;;47.72;19.52;;;5.00;99.90;;;;;;5099418;28;20036;-72
2022/03/24 06:22:13;;;;;;;39.05;19.10;;;5.00;99.90;;;;;;5083988;28;20044;-72
2022/03/24 06:24:39;;;;;;;36.25;18.48;;;5.00;99.90;;;;;;5082834;28;20086;-74
2022/03/24 06:27:05;;;;;;;34.30;19.20;;;5.00;99.90;;;;;;5066038;28;20307;-72
2022/03/24 06:29:31;;;;;;;38.22;18.70;;;4.90;99.90;;;;;;5083876;28;20020;-72
2022/03/24 06:31:57;;;;;;;35.17;18.92;;;5.00;99.90;;;;;;5064926;28;20074;-73
2022/03/24 06:34:23;;;;;;;38.53;19.08;;;5.10;99.90;;;;;;5079587;28;20202;-72
2022/03/24 06:36:50;;;;;;;48.42;18.77;;;5.10;99.90;;;;;;5063161;28;20025;-73
2022/03/24 06:39:16;;;;;;;39.13;18.83;;;5.10;99.90;;;;;;5064252;28;20083;-75
2022/03/24 06:41:42;;;;;;;36.95;19.92;;;5.20;99.90;;;;;;5077458;28;20048;-73
2022/03/24 06:44:09;;;;;;;37.30;19.13;;;5.20;99.90;;;;;;5079768;28;20013;-72
2022/03/24 06:46:36;;;;;;;40.00;19.02;;;5.30;99.90;;;;;;5063438;28;20039;-73
2022/03/24 06:49:03;;;;;;;35.00;19.42;;;5.20;99.90;;;;;;5062537;28;20029;-72
2022/03/24 06:51:30;;;;;;;44.25;19.83;;;5.10;99.90;;;;;;5063704;28;20017;-72
2022/03/24 06:53:56;;;;;;;37.65;20.00;;;5.20;99.90;;;;;;5077612;28;20292;-73
2022/03/24 06:56:22;;;;;;;37.83;19.42;;;5.30;99.90;;;;;;5063450;28;20021;-73
2022/03/24 06:58:47;;;;;;;38.58;20.08;;;5.30;99.90;;;;;;5062861;28;20025;-72
2022/03/24 07:01:13;;;;;;;36.53;18.67;;;5.40;99.90;;;;;;5063342;28;20037;-71
2022/03/24 07:03:40;;;;;;;38.42;19.20;;;5.40;99.90;;;;;;5061884;28;20090;-72
2022/03/24 07:06:06;;;;;;;38.15;19.45;;;5.60;99.90;;;;;;5079148;28;20312;-73
2022/03/24 07:08:32;;;;;;;36.20;18.88;;;5.70;99.90;;;;;;5062989;28;20021;-72
2022/03/24 07:10:58;;;;;;;32.95;18.65;;;5.80;99.90;;;;;;5071228;28;20185;-72
2022/03/24 07:13:24;;;;;;;43.30;19.65;;;5.80;99.90;;;;;;5082428;28;20013;-73
2022/03/24 07:15:50;;;;;;;34.33;19.23;;;5.90;99.90;;;;;;5081299;28;20016;-73
2022/03/24 07:18:16;;;;;;;44.22;19.77;;;6.00;99.90;;;;;;5082082;28;20334;-73
2022/03/24 07:20:42;;;;;;;52.22;19.77;;;6.00;99.90;;;;;;5081746;28;20104;-73
2022/03/24 07:23:09;;;;;;;36.22;19.98;;;6.00;99.80;;;;;;5082571;28;20233;-75
2022/03/24 07:25:37;;;;;;;50.60;19.73;;;6.00;99.90;;;;;;5080428;28;20028;-72
2022/03/24 07:28:04;;;;;;;46.17;20.58;;;6.10;99.90;;;;;;5079522;28;20025;-73
2022/03/24 07:30:30;;;;;;;38.83;19.33;;;6.20;99.90;;;;;;5081648;28;20028;-72
2022/03/24 07:32:58;;;;;;;36.33;18.75;;;6.20;99.90;;;;;;5063359;28;20410;-74
2022/03/24 07:35:24;;;;;;;33.25;18.73;;;6.30;99.90;;;;;;5068763;28;20020;-73
2022/03/24 07:37:51;;;;;;;33.30;19.67;;;6.40;99.80;;;;;;5059505;28;20399;-72
2022/03/24 07:40:18;;;;;;;35.50;18.55;;;6.50;99.80;;;;;;5076684;28;20037;-72
2022/03/24 07:42:45;;;;;;;32.47;18.67;;;6.60;99.90;;;;;;5059277;28;20028;-72
2022/03/24 07:45:12;;;;;;;32.30;19.20;;;6.60;99.10;;;;;;5060312;28;20029;-71
2022/03/24 07:48:14;;;;;;;31.60;18.80;;;6.70;98.90;;;;;;5058996;28;20059;-72
2022/03/24 07:50:43;;;;;;;29.42;18.05;;;6.70;98.70;;;;;;5059811;28;20028;-73
2022/03/24 07:53:19;;;;;;;27.13;18.30;;;6.80;98.40;;;;;;5076159;28;20065;-74
2022/03/24 07:55:46;;;;;;;29.33;18.80;;;6.80;98.30;;;;;;5069629;28;20017;-72
2022/03/24 07:58:13;;;;;;;35.20;18.58;;;6.90;98.20;;;;;;5096446;28;20055;-71
2022/03/24 08:00:39;;;;;;;37.15;18.40;;;6.90;98.30;;;;;;5070840;28;20024;-70
2022/03/24 08:03:10;;;;;;;39.35;17.70;;;6.90;97.90;;;;;;5064054;28;20263;-70
2022/03/24 08:05:36;;;;;;;31.20;17.13;;;7.00;97.80;;;;;;5083405;28;20024;-70
2022/03/24 08:08:04;;;;;;;38.33;17.67;;;7.20;97.70;;;;;;5084067;28;20027;-69
2022/03/24 08:10:30;;;;;;;31.70;17.67;;;7.30;97.60;;;;;;5079033;28;20040;-70
2022/03/24 08:12:55;;;;;;;26.90;17.77;;;7.40;97.10;;;;;;5079930;28;20052;-70
2022/03/24 08:15:21;;;;;;;37.10;18.38;;;7.50;97.10;;;;;;5079164;28;20063;-70
2022/03/24 08:17:47;;;;;;;30.42;18.27;;;7.50;97.20;;;;;;5079123;28;20250;-69
2022/03/24 08:20:13;;;;;;;30.42;17.98;;;7.60;97.00;;;;;;5062634;28;20043;-70
2022/03/24 08:22:39;;;;;;;30.55;18.02;;;7.80;96.60;;;;;;5079782;28;20021;-70
2022/03/24 08:25:08;;;;;;;26.88;17.02;;;7.90;96.60;;;;;;5081295;28;20122;-69
2022/03/24 08:27:35;;;;;;;35.80;18.13;;;8.00;96.30;;;;;;5064518;28;20027;-68
2022/03/24 08:30:01;;;;;;;28.17;17.88;;;8.10;96.00;;;;;;5047125;28;20096;-69
2022/03/24 08:32:27;;;;;;;36.92;19.25;;;8.30;95.90;;;;;;5066654;28;20054;-69
2022/03/24 08:34:53;;;;;;;27.42;17.73;;;8.40;95.70;;;;;;5064171;28;20328;-69
2022/03/24 08:37:18;;;;;;;50.50;19.33;;;8.60;95.40;;;;;;5070184;28;20029;-67
2022/03/24 08:39:44;;;;;;;40.03;19.48;;;8.80;95.10;;;;;;5065447;28;20264;-69
2022/03/24 08:42:10;;;;;;;54.47;21.73;;;8.90;94.70;;;;;;5065373;28;20033;-69
2022/03/24 08:44:35;;;;;;;38.13;18.83;;;8.90;94.80;;;;;;5062870;28;20040;-71
2022/03/24 08:47:01;;;;;;;33.83;19.85;;;9.10;94.70;;;;;;5077590;28;20036;-69
2022/03/24 08:49:27;;;;;;;36.33;19.80;;;9.20;94.40;;;;;;5069759;28;20024;-68
2022/03/24 08:51:53;;;;;;;39.65;19.80;;;9.40;94.00;;;;;;5083875;28;20087;-70
2022/03/24 08:54:19;;;;;;;45.88;20.13;;;9.50;93.90;;;;;;5083248;28;20025;-69
2022/03/24 08:56:45;;;;;;;40.78;20.92;;;9.70;93.50;;;;;;5083788;28;20307;-69
2022/03/24 08:59:10;;;;;;;64.82;21.27;;;9.90;93.10;;;;;;5081194;28;20099;-68
2022/03/24 09:01:37;;;;;;;51.08;20.10;;;10.00;93.00;;;;;;5082830;28;20091;-68
2022/03/24 09:04:03;;;;;;;53.58;21.20;;;10.20;92.60;;;;;;5081882;28;20066;-70
2022/03/24 09:06:28;;;;;;;44.75;20.95;;;10.30;92.40;;;;;;5074764;28;20177;-70
2022/03/24 09:08:54;;;;;;;47.63;22.00;;;10.40;92.10;;;;;;5064314;28;20036;-72
2022/03/24 09:11:20;;;;;;;44.85;20.40;;;10.50;92.00;;;;;;5080066;28;20017;-74
2022/03/24 09:13:46;;;;;;;44.53;21.05;;;10.60;91.70;;;;;;5060220;28;20118;-73
2022/03/24 09:16:11;;;;;;;40.13;20.48;;;10.70;91.50;;;;;;5060450;28;20216;-69
2022/03/24 09:18:37;;;;;;;36.13;20.88;;;10.70;91.40;;;;;;5063486;28;20051;-72
2022/03/24 09:21:03;;;;;;;38.28;20.05;;;10.90;91.20;;;;;;5063700;28;20118;-71
2022/03/24 09:23:29;;;;;;;32.95;19.92;;;10.90;90.90;;;;;;5061368;28;20040;-69
2022/03/24 09:25:58;;;;;;;38.90;20.67;;;11.00;90.80;;;;;;5063033;28;20025;-68
2022/03/24 09:28:24;;;;;;;41.97;21.40;;;11.00;90.90;;;;;;5063900;28;20389;-69
2022/03/24 09:30:51;;;;;;;38.88;20.60;;;11.10;90.70;;;;;;5061751;28;20025;-71
2022/03/24 09:33:18;;;;;;;32.42;20.48;;;11.20;90.70;;;;;;5060326;28;20102;-68
2022/03/24 09:35:44;;;;;;;36.65;19.88;;;11.30;90.60;;;;;;5060842;28;20087;-69
2022/03/24 09:38:09;;;;;;;37.40;20.67;;;11.40;90.50;;;;;;5060497;28;20032;-70
2022/03/24 09:40:36;;;;;;;37.95;21.77;;;11.40;90.40;;;;;;5065021;28;20028;-68
2022/03/24 09:43:03;;;;;;;38.92;22.00;;;11.60;90.30;;;;;;5079795;28;20036;-70
2022/03/24 09:45:30;;;;;;;33.83;20.30;;;11.70;90.10;;;;;;5080380;28;20032;-71
2022/03/24 09:47:57;;;;;;;36.67;22.00;;;11.80;89.80;;;;;;5099616;28;20052;-69
2022/03/24 09:50:24;;;;;;;40.33;21.17;;;12.00;89.10;;;;;;5097349;28;20227;-69
2022/03/24 09:52:52;;;;;;;39.03;21.13;;;12.10;88.50;;;;;;5096132;28;20036;-69
2022/03/24 09:55:18;;;;;;;42.30;20.73;;;12.20;87.90;;;;;;5096623;28;20109;-69
2022/03/24 09:57:46;;;;;;;40.10;21.80;;;12.30;87.50;;;;;;5096467;28;20025;-69
2022/03/24 10:00:13;;;;;;;37.63;20.27;;;12.30;87.50;;;;;;5081804;28;20052;-69
2022/03/24 10:02:39;;;;;;;33.53;20.38;;;12.40;87.10;;;;;;5098244;28;20028;-72
2022/03/24 10:05:08;;;;;;;37.15;20.50;;;12.50;85.40;;;;;;5081516;28;20028;-74
2022/03/24 10:07:47;;;;;;;42.00;20.73;;;12.50;86.00;;;;;;5080583;28;20023;-70
2022/03/24 10:10:30;;;;;;;50.35;23.27;;;12.70;85.00;;;;;;5097296;28;20028;-69
2022/03/24 10:12:56;;;;;;;37.00;20.30;;;12.80;85.00;;;;;;5080520;28;20246;-75
2022/03/24 10:15:21;;;;;;;37.95;20.42;;;12.90;84.00;;;;;;5079729;28;20044;-72
2022/03/24 10:17:54;;;;;;;41.45;20.35;;;12.90;83.50;;;;;;5081354;28;20028;-70
2022/03/24 10:20:21;;;;;;;39.35;22.05;;;13.00;83.80;;;;;;5082338;28;20020;-71
2022/03/24 10:23:03;;;;;;;42.20;22.08;;;13.00;83.30;;;;;;5083315;28;20035;-73
2022/03/24 10:25:31;;;;;;;40.17;20.77;;;13.10;83.10;;;;;;5081399;28;20291;-72
2022/03/24 10:28:17;;;;;;;38.70;20.80;;;13.20;82.30;;;;;;5083791;28;20055;-71
2022/03/24 10:30:52;;;;;;;42.08;21.08;;;13.30;82.00;;;;;;5065668;28;20410;-73
2022/03/24 10:33:36;;;;;;;39.58;21.25;;;13.50;82.30;;;;;;5063069;28;20220;-74
2022/03/24 10:36:13;;;;;;;43.25;21.80;;;13.50;82.10;;;;;;5079221;28;20051;-70
2022/03/24 10:38:42;;;;;;;38.35;20.95;;;13.70;81.40;;;;;;5081759;28;20578;-72
2022/03/24 10:41:26;;;;;;;42.13;21.17;;;13.80;81.20;;;;;;5069598;28;20025;-71
2022/03/24 10:43:54;;;;;;;38.15;20.92;;;13.80;80.30;;;;;;5060569;28;20025;-70
2022/03/24 10:46:23;;;;;;;38.88;21.90;;;13.90;80.30;;;;;;5059313;28;20309;-72
2022/03/24 10:48:51;;;;;;;43.72;20.63;;;14.00;81.10;;;;;;5061675;28;20027;-71
2022/03/24 10:51:27;;;;;;;38.88;20.80;;;14.10;81.60;;;;;;5077528;28;20088;-71
2022/03/24 10:54:02;;;;;;;42.33;21.73;;;14.20;80.00;;;;;;5061498;28;20101;-70
2022/03/24 10:56:39;;;;;;;46.83;22.48;;;14.30;79.20;;;;;;5061000;28;20259;-70
2022/03/24 10:59:05;;;;;;;38.80;22.15;;;14.60;78.20;;;;;;5076576;28;20052;-74
2022/03/24 11:01:32;;;;;;;38.35;21.92;;;14.60;77.80;;;;;;5061011;28;20029;-73
2022/03/24 11:03:58;;;;;;;42.55;23.20;;;14.70;77.40;;;;;;5061037;28;20033;-72
2022/03/24 11:06:23;;;;;;;46.35;22.90;;;14.80;76.90;;;;;;5058576;28;20031;-71
2022/03/24 11:08:55;;;;;;;46.40;21.67;;;14.90;76.80;;;;;;5060717;28;20312;-71
2022/03/24 11:11:21;;;;;;;39.92;20.10;;;15.00;76.90;;;;;;5067883;28;20370;-71
2022/03/24 11:14:03;;;;;;;44.03;21.85;;;15.10;77.20;;;;;;5076273;28;20040;-73
2022/03/24 11:16:33;;;;;;;51.47;22.58;;;15.20;76.00;;;;;;5076254;28;20017;-72
2022/03/24 11:19:01;;;;;;;42.83;22.13;;;15.30;76.50;;;;;;5075948;28;20041;-73
2022/03/24 11:21:51;;;;;;;50.15;22.58;;;15.30;75.60;;;;;;5058360;28;20025;-72
2022/03/24 11:24:18;;;;;;;46.65;22.88;;;15.30;75.00;;;;;;5074755;28;20232;-73
2022/03/24 11:26:43;;;;;;;41.20;23.08;;;15.30;75.00;;;;;;5074193;28;20025;-72
2022/03/24 11:29:10;;;;;;;49.03;23.45;;;15.30;75.00;;;;;;5074391;28;20075;-73
2022/03/24 11:31:36;;;;;;;57.88;22.90;;;15.30;75.80;;;;;;5074606;28;20112;-72
2022/03/24 11:34:04;;;;;;;42.65;23.00;;;15.40;75.60;;;;;;5076161;28;20334;-73
2022/03/24 11:36:31;;;;;;;43.53;21.48;;;15.50;74.40;;;;;;5073827;28;20051;-73
2022/03/24 11:39:02;;;;;;;47.08;23.70;;;15.50;74.30;;;;;;5073931;28;20068;-72
2022/03/24 11:41:45;;;;;;;49.63;22.98;;;15.70;74.20;;;;;;5087285;28;20042;-74
2022/03/24 11:44:18;;;;;;;48.13;24.50;;;15.90;73.40;;;;;;5079417;28;20039;-73
2022/03/24 11:46:56;;;;;;;47.33;23.13;;;16.00;72.80;;;;;;5061074;28;20039;-72
2022/03/24 11:49:25;;;;;;;52.92;23.38;;;16.10;72.30;;;;;;5077386;28;20032;-72
2022/03/24 11:52:25;;;;;;;49.28;24.95;;;16.20;72.80;;;;;;5080261;28;20220;-73
2022/03/24 11:54:53;;;;;;;55.50;25.20;;;16.20;72.40;;;;;;5069343;28;20268;-72
2022/03/24 11:57:28;;;;;;;49.22;24.63;;;16.20;71.90;;;;;;5081601;28;20364;-71
2022/03/24 12:00:33;;;;;;;48.97;24.38;;;16.10;71.90;;;;;;5064606;28;20211;-73
2022/03/24 12:03:01;;;;;;;51.53;23.85;;;16.10;72.40;;;;;;5083787;28;20027;-72
2022/03/24 12:05:48;;;;;;;48.35;24.48;;;16.30;71.80;;;;;;5082114;28;20024;-73
2022/03/24 12:08:24;;;;;;;47.80;23.50;;;16.50;70.80;;;;;;5083679;28;20024;-74
2022/03/24 12:10:50;;;;;;;52.40;25.13;;;16.70;70.80;;;;;;5075009;28;20020;-73
2022/03/24 12:13:21;;;;;;;46.95;24.45;;;16.80;70.10;;;;;;5061514;28;20324;-71
2022/03/24 12:16:10;;;;;;;52.65;25.48;;;16.90;69.80;;;;;;5044981;28;20100;-71
2022/03/24 12:18:40;;;;;;;48.53;23.50;;;17.00;69.20;;;;;;5046995;28;20043;-75
2022/03/24 12:21:06;;;;;;;52.55;24.70;;;17.10;68.50;;;;;;5062501;28;20021;-74
2022/03/24 12:24:11;;;;;;;42.25;22.60;;;17.10;68.50;;;;;;5044568;28;20055;-75
2022/03/24 12:26:39;;;;;;;47.13;23.67;;;17.20;68.10;;;;;;5063478;28;20025;-69
2022/03/24 12:29:21;;;;;;;46.33;24.73;;;17.30;67.40;;;;;;5060681;28;20031;-71
2022/03/24 12:32:03;;;;;;;51.83;26.23;;;17.40;67.10;;;;;;5059758;28;20036;-70
2022/03/24 12:34:44;;;;;;;48.45;23.58;;;17.30;67.00;;;;;;5064980;28;20021;-70
2022/03/24 12:37:40;;;;;;;46.78;21.98;;;17.40;66.60;;;;;;5064821;28;20047;-71
2022/03/24 12:40:10;;;;;;;49.33;22.90;;;17.40;66.70;;;;;;5082883;28;20042;-68